createdAt,value
2023-05-08T00:00:58.701Z,9.78
2023-05-08T00:03:25.209Z,9.70
2023-05-08T00:05:51.677Z,9.67
2023-05-08T00:08:17.982Z,9.56
2023-05-08T00:10:44.286Z,9.48
2023-05-08T00:13:10.598Z,9.50
2023-05-08T00:15:37.004Z,9.58
2023-05-08T00:18:03.450Z,9.57
2023-05-08T00:20:29.818Z,9.47
2023-05-08T00:22:56.132Z,9.56
2023-05-08T00:25:22.467Z,9.57
2023-05-08T00:27:48.804Z,9.49
2023-05-08T00:30:15.388Z,9.42
2023-05-08T00:32:41.737Z,9.51
2023-05-08T00:35:08.448Z,9.53
2023-05-08T00:37:35.091Z,9.52
2023-05-08T00:40:01.387Z,9.58
2023-05-08T00:42:27.711Z,9.58
2023-05-08T00:44:54.016Z,9.72
2023-05-08T00:47:21.481Z,9.68
2023-05-08T00:49:48.292Z,9.68
2023-05-08T00:52:14.967Z,9.79
2023-05-08T00:54:41.608Z,9.68
2023-05-08T00:57:08.042Z,9.57
2023-05-08T00:59:36.775Z,9.57
2023-05-08T01:02:03.626Z,9.59
2023-05-08T01:04:31.456Z,9.72
2023-05-08T01:06:57.890Z,9.68
2023-05-08T01:09:24.198Z,9.63
2023-05-08T01:12:23.309Z,9.72
2023-05-08T01:14:55.417Z,9.66
2023-05-08T01:18:03.904Z,9.61
2023-05-08T01:20:59.603Z,9.54
2023-05-08T01:23:44.507Z,9.43
2023-05-08T01:26:55.112Z,9.31
2023-05-08T01:29:58.964Z,9.46
2023-05-08T01:32:29.880Z,9.56
2023-05-08T01:35:52.094Z,9.53
2023-05-08T01:38:25.120Z,9.50
2023-05-08T01:41:01.921Z,9.54
2023-05-08T01:43:35.604Z,9.52
2023-05-08T01:46:09.671Z,9.42
2023-05-08T01:48:43.948Z,9.49
2023-05-08T01:51:19.499Z,9.45
2023-05-08T01:53:50.976Z,9.35
2023-05-08T01:56:21.711Z,9.42
2023-05-08T01:58:51.159Z,9.44
2023-05-08T02:01:20.956Z,9.40
2023-05-08T02:03:48.826Z,9.40
2023-05-08T02:06:17.977Z,9.42
2023-05-08T02:08:45.474Z,9.51
2023-05-08T02:11:14.276Z,9.46
2023-05-08T02:13:42.587Z,9.40
2023-05-08T02:16:11.070Z,9.44
2023-05-08T02:18:40.786Z,9.39
2023-05-08T02:21:08.565Z,9.38
2023-05-08T02:23:35.538Z,9.40
2023-05-08T02:26:04.505Z,9.33
2023-05-08T02:28:32.805Z,9.33
2023-05-08T02:31:00.643Z,9.42
2023-05-08T02:33:29.575Z,9.25
2023-05-08T02:35:57.252Z,9.34
2023-05-08T02:38:25.736Z,9.22
2023-05-08T02:40:58.112Z,9.24
2023-05-08T02:43:24.567Z,9.19
2023-05-08T02:46:14.094Z,9.12
2023-05-08T02:48:55.350Z,9.05
2023-05-08T02:51:43.924Z,8.93
2023-05-08T02:54:14.413Z,8.96
2023-05-08T02:56:59.967Z,8.82
2023-05-08T02:59:35.589Z,8.82
2023-05-08T03:02:22.079Z,8.88
2023-05-08T03:04:56.412Z,8.82
2023-05-08T03:07:25.811Z,8.81
2023-05-08T03:09:58.889Z,8.88
2023-05-08T03:12:28.775Z,8.75
2023-05-08T03:15:07.501Z,8.77
2023-05-08T03:17:36.788Z,8.71
2023-05-08T03:20:06.723Z,8.79
2023-05-08T03:22:36.708Z,8.75
2023-05-08T03:25:05.646Z,8.73
2023-05-08T03:27:32.969Z,8.65
2023-05-08T03:30:01.889Z,8.67
2023-05-08T03:32:29.658Z,8.60
2023-05-08T03:34:59.061Z,8.59
2023-05-08T03:37:27.844Z,8.64
2023-05-08T03:39:55.544Z,8.71
2023-05-08T03:42:23.896Z,8.63
2023-05-08T03:44:51.135Z,8.69
2023-05-08T03:47:18.840Z,8.70
2023-05-08T03:49:47.034Z,8.70
2023-05-08T03:52:14.211Z,8.85
2023-05-08T03:54:40.786Z,8.84
2023-05-08T03:57:07.272Z,8.81
2023-05-08T03:59:46.126Z,8.90
2023-05-08T04:02:39.397Z,8.78
2023-05-08T04:05:25.203Z,8.84
2023-05-08T04:07:57.009Z,8.74
2023-05-08T04:10:32.600Z,8.79
2023-05-08T04:13:08.597Z,8.79
2023-05-08T04:15:52.617Z,8.75
2023-05-08T04:18:24.344Z,8.75
2023-05-08T04:20:55.470Z,8.85
2023-05-08T04:23:24.337Z,8.81
2023-05-08T04:25:52.180Z,8.76
2023-05-08T04:28:19.391Z,8.76
2023-05-08T04:30:46.137Z,8.74
2023-05-08T04:33:13.856Z,8.88
2023-05-08T04:35:40.262Z,8.90
2023-05-08T04:38:06.623Z,8.95
2023-05-08T04:40:32.952Z,9.04
2023-05-08T04:42:59.385Z,9.14
2023-05-08T04:45:25.682Z,9.37
2023-05-08T04:47:52.036Z,9.23
2023-05-08T04:50:18.443Z,9.26
2023-05-08T04:52:44.765Z,9.33
2023-05-08T04:55:11.340Z,9.40
2023-05-08T04:57:37.831Z,9.52
2023-05-08T05:00:04.560Z,9.62
2023-05-08T05:02:30.909Z,9.83
2023-05-08T05:04:57.252Z,9.93
2023-05-08T05:07:23.556Z,9.75
2023-05-08T05:09:50.027Z,9.74
2023-05-08T05:12:16.369Z,9.80
2023-05-08T05:14:42.669Z,9.66
2023-05-08T05:17:08.977Z,9.76
2023-05-08T05:19:35.302Z,9.67
2023-05-08T05:22:01.683Z,10.46
2023-05-08T05:24:28.015Z,11.66
2023-05-08T05:26:54.348Z,12.49
2023-05-08T05:29:20.685Z,12.70
2023-05-08T05:31:47.026Z,12.57
2023-05-08T05:34:13.346Z,12.54
2023-05-08T05:36:39.661Z,12.94
2023-05-08T05:39:05.963Z,13.24
2023-05-08T05:41:32.377Z,12.63
2023-05-08T05:43:58.689Z,13.48
2023-05-08T05:46:25.062Z,13.73
2023-05-08T05:48:51.374Z,13.63
2023-05-08T05:51:17.684Z,13.47
2023-05-08T05:53:43.981Z,13.32
2023-05-08T05:56:10.294Z,13.10
2023-05-08T05:58:36.605Z,13.81
2023-05-08T06:01:03.206Z,13.76
2023-05-08T06:03:29.601Z,14.08
2023-05-08T06:05:56.658Z,15.02
2023-05-08T06:08:23.119Z,15.58
2023-05-08T06:10:49.519Z,15.74
2023-05-08T06:13:15.870Z,16.16
2023-05-08T06:15:42.262Z,16.25
2023-05-08T06:18:08.612Z,16.53
2023-05-08T06:20:37.582Z,17.16
2023-05-08T06:23:04.241Z,17.35
2023-05-08T06:25:30.691Z,17.31
2023-05-08T06:27:57.284Z,18.14
2023-05-08T06:30:23.577Z,17.96
2023-05-08T06:32:50.019Z,18.18
2023-05-08T06:35:16.539Z,17.91
2023-05-08T06:37:42.877Z,17.46
2023-05-08T06:40:12.281Z,16.27
2023-05-08T06:42:39.630Z,15.23
2023-05-08T06:45:06.731Z,14.55
2023-05-08T06:47:33.146Z,13.66
2023-05-08T06:50:00.631Z,14.01
2023-05-08T06:52:26.979Z,14.00
2023-05-08T06:54:53.281Z,13.39
2023-05-08T06:57:19.609Z,13.00
2023-05-08T06:59:45.960Z,13.32
2023-05-08T07:02:12.327Z,13.68
2023-05-08T07:04:38.744Z,13.87
2023-05-08T07:07:05.060Z,13.84
2023-05-08T07:09:31.381Z,13.94
2023-05-08T07:11:57.698Z,13.90
2023-05-08T07:14:24.010Z,14.06
2023-05-08T07:16:50.302Z,14.04
2023-05-08T07:19:16.630Z,14.31
2023-05-08T07:21:42.984Z,14.42
2023-05-08T07:24:09.436Z,14.64
2023-05-08T07:26:35.755Z,14.82
2023-05-08T07:29:02.075Z,14.64
2023-05-08T07:31:28.553Z,14.81
2023-05-08T07:33:54.845Z,15.19
2023-05-08T07:36:21.147Z,15.35
2023-05-08T07:38:47.462Z,15.51
2023-05-08T07:41:13.845Z,15.54
2023-05-08T07:43:40.207Z,15.58
2023-05-08T07:46:06.554Z,15.28
2023-05-08T07:48:33.025Z,15.48
2023-05-08T07:50:59.399Z,15.38
2023-05-08T07:53:25.703Z,15.31
2023-05-08T07:55:52.009Z,15.20
2023-05-08T07:58:18.314Z,15.48
2023-05-08T08:00:44.636Z,14.88
2023-05-08T08:03:11.017Z,15.09
2023-05-08T08:05:37.354Z,15.14
2023-05-08T08:08:03.734Z,15.40
2023-05-08T08:10:30.130Z,15.05
2023-05-08T08:12:56.466Z,15.60
2023-05-08T08:15:22.887Z,15.42
2023-05-08T08:17:49.279Z,15.77
2023-05-08T08:20:15.694Z,15.87
2023-05-08T08:22:42.022Z,16.23
2023-05-08T08:25:08.852Z,15.96
2023-05-08T08:27:35.227Z,15.46
2023-05-08T08:30:12.826Z,15.68
2023-05-08T08:32:42.075Z,15.77
2023-05-08T08:35:08.950Z,16.21
2023-05-08T08:37:35.256Z,16.44
2023-05-08T08:40:02.039Z,16.58
2023-05-08T08:42:28.817Z,16.85
2023-05-08T08:44:56.160Z,17.46
2023-05-08T08:47:27.107Z,16.66
2023-05-08T08:49:54.896Z,16.66
2023-05-08T08:52:30.337Z,17.04
2023-05-08T08:54:58.686Z,17.28
2023-05-08T08:57:27.405Z,17.44
2023-05-08T08:59:55.704Z,17.53
2023-05-08T09:02:23.274Z,17.50
2023-05-08T09:04:50.106Z,17.45
2023-05-08T09:07:17.808Z,17.94
2023-05-08T09:09:44.555Z,18.14
2023-05-08T09:12:13.100Z,17.49
2023-05-08T09:14:39.418Z,17.65
2023-05-08T09:17:05.787Z,18.03
2023-05-08T09:19:33.437Z,18.40
2023-05-08T09:22:00.523Z,18.66
2023-05-08T09:24:47.063Z,18.76
2023-05-08T09:27:20.963Z,18.11
2023-05-08T09:29:59.611Z,18.35
2023-05-08T09:32:25.970Z,18.83
2023-05-08T09:34:52.733Z,19.08
2023-05-08T09:37:19.134Z,19.14
2023-05-08T09:39:45.448Z,19.22
2023-05-08T09:42:11.830Z,19.35
2023-05-08T09:44:52.824Z,19.20
2023-05-08T09:47:21.433Z,18.99
2023-05-08T09:50:00.923Z,19.43
2023-05-08T09:52:29.016Z,19.54
2023-05-08T09:55:00.135Z,19.69
2023-05-08T09:57:27.061Z,19.51
2023-05-08T10:00:06.261Z,19.69
2023-05-08T10:02:32.864Z,19.60
2023-05-08T10:04:59.243Z,19.72
2023-05-08T10:07:30.504Z,19.13
2023-05-08T10:10:05.245Z,19.49
2023-05-08T10:12:32.273Z,19.49
2023-05-08T10:14:59.168Z,19.78
2023-05-08T10:17:29.565Z,20.04
2023-05-08T10:19:59.821Z,20.16
2023-05-08T10:22:27.823Z,20.25
2023-05-08T10:24:57.264Z,19.11
2023-05-08T10:27:31.292Z,18.99
2023-05-08T10:30:02.126Z,19.46
2023-05-08T10:32:35.158Z,19.90
2023-05-08T10:35:04.086Z,19.88
2023-05-08T10:37:30.574Z,19.29
2023-05-08T10:39:57.984Z,19.74
2023-05-08T10:42:25.906Z,20.02
2023-05-08T10:44:53.462Z,19.85
2023-05-08T10:47:36.286Z,20.28
2023-05-08T10:50:26.332Z,20.51
2023-05-08T10:53:06.459Z,20.39
2023-05-08T10:55:37.007Z,20.65
2023-05-08T10:58:04.157Z,20.86
2023-05-08T11:00:53.538Z,20.99
2023-05-08T11:03:30.430Z,21.07
2023-05-08T11:06:00.983Z,20.94
2023-05-08T11:08:29.418Z,20.76
2023-05-08T11:11:14.590Z,21.17
2023-05-08T11:13:48.444Z,21.13
2023-05-08T11:16:17.923Z,21.04
2023-05-08T11:19:35.419Z,21.11
2023-05-08T11:22:31.579Z,21.39
2023-05-08T11:25:11.549Z,21.09
2023-05-08T11:27:39.522Z,21.04
2023-05-08T11:30:40.381Z,21.28
2023-05-08T11:33:06.725Z,21.14
2023-05-08T11:35:51.890Z,21.04
2023-05-08T11:38:22.906Z,20.80
2023-05-08T11:40:53.932Z,20.82
2023-05-08T11:43:27.255Z,21.04
2023-05-08T11:45:54.427Z,21.50
2023-05-08T11:48:20.813Z,21.65
2023-05-08T11:50:47.250Z,21.74
2023-05-08T11:53:13.682Z,22.06
2023-05-08T11:55:40.146Z,22.62
2023-05-08T11:58:16.241Z,22.99
2023-05-08T12:00:43.951Z,23.28
2023-05-08T12:03:14.648Z,23.62
2023-05-08T12:05:41.777Z,24.02
2023-05-08T12:08:09.042Z,23.65
2023-05-08T12:10:49.848Z,23.81
2023-05-08T12:13:23.254Z,23.62
2023-05-08T12:15:55.138Z,23.37
2023-05-08T12:18:22.796Z,23.62
2023-05-08T12:20:59.801Z,23.86
2023-05-08T12:23:27.091Z,23.97
2023-05-08T12:25:55.144Z,23.91
2023-05-08T12:28:21.890Z,23.76
2023-05-08T12:30:48.351Z,24.08
2023-05-08T12:33:15.043Z,24.27
2023-05-08T12:35:41.686Z,24.07
2023-05-08T12:38:08.801Z,24.46
2023-05-08T12:40:43.282Z,24.93
2023-05-08T12:43:10.310Z,25.36
2023-05-08T12:45:38.509Z,24.43
2023-05-08T12:48:10.273Z,24.41
2023-05-08T12:50:39.491Z,24.93
2023-05-08T12:53:10.823Z,25.17
2023-05-08T12:55:39.016Z,24.81
2023-05-08T12:58:06.549Z,24.65
2023-05-08T13:00:40.834Z,24.14
2023-05-08T13:03:08.701Z,23.88
2023-05-08T13:05:37.119Z,23.98
2023-05-08T13:08:05.676Z,24.14
2023-05-08T13:10:51.450Z,24.34
2023-05-08T13:13:20.176Z,24.47
2023-05-08T13:15:47.504Z,24.17
2023-05-08T13:18:14.687Z,23.94
2023-05-08T13:20:41.648Z,23.37
2023-05-08T13:23:08.708Z,22.92
2023-05-08T13:25:39.914Z,23.01
2023-05-08T13:28:07.698Z,23.51
2023-05-08T13:30:35.260Z,23.00
2023-05-08T13:33:01.695Z,23.72
2023-05-08T13:35:28.389Z,24.20
2023-05-08T13:37:55.427Z,24.58
2023-05-08T13:40:21.753Z,24.87
2023-05-08T13:42:48.084Z,24.71
2023-05-08T13:45:15.112Z,24.46
2023-05-08T13:47:42.445Z,24.47
2023-05-08T13:50:10.337Z,24.02
2023-05-08T13:52:37.335Z,24.09
2023-05-08T13:55:12.337Z,24.61
2023-05-08T13:57:39.618Z,24.74
2023-05-08T14:00:07.385Z,24.92
2023-05-08T14:02:33.902Z,25.04
2023-05-08T14:05:00.299Z,24.85
2023-05-08T14:07:26.672Z,24.49
2023-05-08T14:09:52.979Z,23.85
2023-05-08T14:12:19.291Z,23.67
2023-05-08T14:14:45.625Z,23.53
2023-05-08T14:17:11.948Z,23.19
2023-05-08T14:19:38.311Z,23.13
2023-05-08T14:22:04.722Z,22.97
2023-05-08T14:24:31.017Z,23.01
2023-05-08T14:26:57.324Z,23.21
2023-05-08T14:29:23.634Z,23.68
2023-05-08T14:31:50.061Z,23.79
2023-05-08T14:34:16.391Z,23.40
2023-05-08T14:36:42.804Z,23.31
2023-05-08T14:39:09.172Z,23.19
2023-05-08T14:41:35.518Z,22.87
2023-05-08T14:44:01.840Z,22.77
2023-05-08T14:46:28.166Z,22.69
2023-05-08T14:48:54.960Z,22.46
2023-05-08T14:51:23.126Z,22.47
2023-05-08T14:53:49.631Z,22.39
2023-05-08T14:56:16.069Z,22.66
2023-05-08T14:58:42.457Z,22.83
2023-05-08T15:01:08.782Z,22.81
2023-05-08T15:03:35.233Z,22.74
2023-05-08T15:06:01.687Z,23.06
2023-05-08T15:08:28.073Z,23.02
2023-05-08T15:10:54.374Z,22.97
2023-05-08T15:13:20.764Z,23.12
2023-05-08T15:15:47.077Z,23.35
2023-05-08T15:18:13.388Z,23.05
2023-05-08T15:20:39.684Z,23.06
2023-05-08T15:23:06.075Z,23.17
2023-05-08T15:25:32.372Z,23.33
2023-05-08T15:28:00.471Z,23.19
2023-05-08T15:30:26.968Z,23.17
2023-05-08T15:32:53.422Z,23.28
2023-05-08T15:35:19.790Z,23.23
2023-05-08T15:37:46.133Z,23.14
2023-05-08T15:40:12.786Z,23.08
2023-05-08T15:42:39.110Z,23.01
2023-05-08T15:45:05.851Z,23.02
2023-05-08T15:47:32.167Z,23.07
2023-05-08T15:49:58.549Z,23.04
2023-05-08T15:52:24.842Z,22.77
2023-05-08T15:54:51.191Z,22.73
2023-05-08T15:57:17.523Z,22.83
2023-05-08T15:59:43.920Z,22.91
2023-05-08T16:02:10.310Z,22.59
2023-05-08T16:04:36.758Z,22.37
2023-05-08T16:07:03.077Z,22.29
2023-05-08T16:09:29.393Z,22.16
2023-05-08T16:11:55.794Z,22.10
2023-05-08T16:14:22.116Z,21.40
2023-05-08T16:16:48.516Z,20.97
2023-05-08T16:19:14.879Z,20.89
2023-05-08T16:21:41.258Z,20.55
2023-05-08T16:24:07.587Z,20.44
2023-05-08T16:26:33.892Z,20.39
2023-05-08T16:29:00.193Z,20.39
2023-05-08T16:31:26.568Z,20.45
2023-05-08T16:33:52.906Z,20.35
2023-05-08T16:36:19.245Z,20.37
2023-05-08T16:38:45.590Z,20.51
2023-05-08T16:41:11.886Z,20.60
2023-05-08T16:43:38.189Z,20.71
2023-05-08T16:46:07.749Z,20.71
2023-05-08T16:48:34.501Z,20.66
2023-05-08T16:51:00.829Z,20.50
2023-05-08T16:53:27.125Z,20.24
2023-05-08T16:55:54.699Z,20.17
2023-05-08T16:58:21.068Z,20.09
2023-05-08T17:00:47.460Z,20.11
2023-05-08T17:03:13.949Z,19.96
2023-05-08T17:05:40.373Z,19.73
2023-05-08T17:08:06.682Z,19.33
2023-05-08T17:10:32.993Z,19.23
2023-05-08T17:12:59.320Z,19.04
2023-05-08T17:15:25.668Z,18.91
2023-05-08T17:17:52.002Z,18.83
2023-05-08T17:20:18.351Z,18.59
2023-05-08T17:22:44.663Z,18.52
2023-05-08T17:25:11.017Z,18.47
2023-05-08T17:27:37.332Z,18.32
2023-05-08T17:30:04.218Z,18.26
2023-05-08T17:32:30.583Z,18.14
2023-05-08T17:34:56.926Z,18.13
2023-05-08T17:37:23.222Z,18.20
2023-05-08T17:39:49.535Z,18.40
2023-05-08T17:42:15.840Z,18.31
2023-05-08T17:44:42.157Z,18.00
2023-05-08T17:47:08.532Z,17.91
2023-05-08T17:49:34.882Z,17.85
2023-05-08T17:52:01.191Z,17.80
2023-05-08T17:54:27.494Z,17.89
2023-05-08T17:56:53.795Z,17.86
2023-05-08T17:59:20.108Z,17.79
2023-05-08T18:01:46.536Z,17.84
2023-05-08T18:04:13.000Z,17.89
2023-05-08T18:06:39.365Z,17.72
2023-05-08T18:09:05.668Z,17.73
2023-05-08T18:11:31.990Z,17.81
2023-05-08T18:13:58.311Z,17.72
2023-05-08T18:16:24.751Z,17.48
2023-05-08T18:18:51.111Z,17.41
2023-05-08T18:21:17.585Z,17.29
2023-05-08T18:23:44.244Z,17.06
2023-05-08T18:26:16.952Z,16.94
2023-05-08T18:28:43.893Z,16.81
2023-05-08T18:31:10.338Z,16.85
2023-05-08T18:33:36.728Z,16.90
2023-05-08T18:36:03.492Z,16.86
2023-05-08T18:38:29.810Z,16.68
2023-05-08T18:40:56.130Z,16.54
2023-05-08T18:43:22.485Z,16.51
2023-05-08T18:45:48.782Z,16.51
2023-05-08T18:48:15.090Z,16.52
2023-05-08T18:50:41.389Z,16.49
2023-05-08T18:53:07.703Z,16.51
2023-05-08T18:55:34.013Z,16.57
2023-05-08T18:58:00.346Z,16.74
2023-05-08T19:00:26.726Z,16.63
2023-05-08T19:02:53.207Z,16.46
2023-05-08T19:05:19.680Z,16.46
2023-05-08T19:07:45.998Z,16.43
2023-05-08T19:10:12.503Z,16.45
2023-05-08T19:12:39.136Z,16.42
2023-05-08T19:15:05.996Z,16.50
2023-05-08T19:17:32.380Z,16.49
2023-05-08T19:19:58.695Z,16.46
2023-05-08T19:22:25.001Z,16.26
2023-05-08T19:24:51.306Z,16.12
2023-05-08T19:27:17.794Z,16.12
2023-05-08T19:29:44.142Z,16.14
2023-05-08T19:32:10.452Z,16.18
2023-05-08T19:34:36.828Z,16.23
2023-05-08T19:37:03.257Z,16.53
2023-05-08T19:39:29.592Z,16.36
2023-05-08T19:41:55.924Z,16.25
2023-05-08T19:44:22.254Z,16.03
2023-05-08T19:46:50.665Z,15.94
2023-05-08T19:49:16.999Z,15.80
2023-05-08T19:51:43.435Z,15.70
2023-05-08T19:54:09.978Z,15.64
2023-05-08T19:56:36.289Z,15.53
2023-05-08T19:59:02.617Z,15.52
2023-05-08T20:01:28.969Z,15.40
2023-05-08T20:03:57.412Z,15.22
2023-05-08T20:06:25.314Z,15.13
2023-05-08T20:08:51.650Z,15.27
2023-05-08T20:11:17.980Z,15.19
2023-05-08T20:13:44.309Z,15.10
2023-05-08T20:16:10.662Z,15.10
2023-05-08T20:18:37.050Z,14.98
2023-05-08T20:21:03.507Z,15.05
2023-05-08T20:23:29.970Z,15.05
2023-05-08T20:25:56.297Z,15.05
2023-05-08T20:28:22.667Z,14.93
2023-05-08T20:30:49.436Z,14.84
2023-05-08T20:33:15.884Z,14.94
2023-05-08T20:35:42.269Z,14.98
2023-05-08T20:38:08.611Z,14.96
2023-05-08T20:40:34.978Z,14.92
2023-05-08T20:43:01.332Z,14.85
2023-05-08T20:45:27.752Z,14.82
2023-05-08T20:47:54.149Z,14.89
2023-05-08T20:50:20.596Z,14.81
2023-05-08T20:52:46.915Z,14.80
2023-05-08T20:55:13.389Z,14.73
2023-05-08T20:57:39.890Z,14.74
2023-05-08T21:00:06.957Z,14.73
2023-05-08T21:02:33.296Z,14.52
2023-05-08T21:04:59.653Z,14.61
2023-05-08T21:07:26.086Z,14.58
2023-05-08T21:09:52.408Z,14.42
2023-05-08T21:12:18.729Z,14.46
2023-05-08T21:14:45.137Z,14.45
2023-05-08T21:17:11.453Z,14.42
2023-05-08T21:19:37.792Z,14.40
2023-05-08T21:22:04.111Z,14.27
2023-05-08T21:24:30.523Z,14.25
2023-05-08T21:26:56.842Z,14.26
2023-05-08T21:29:23.179Z,14.24
2023-05-08T21:31:49.583Z,14.18
2023-05-08T21:34:16.361Z,14.21
2023-05-08T21:36:42.735Z,14.16
2023-05-08T21:39:09.054Z,14.15
2023-05-08T21:41:35.368Z,14.22
2023-05-08T21:44:01.763Z,14.20
2023-05-08T21:46:28.093Z,14.20
2023-05-08T21:48:54.437Z,14.24
2023-05-08T21:51:20.854Z,14.32
2023-05-08T21:53:47.195Z,14.22
2023-05-08T21:56:13.493Z,14.21
2023-05-08T21:58:39.840Z,14.14
2023-05-08T22:01:06.178Z,14.30
2023-05-08T22:03:32.648Z,14.19
2023-05-08T22:05:59.044Z,14.21
2023-05-08T22:08:25.442Z,14.21
2023-05-08T22:10:51.802Z,14.19
2023-05-08T22:13:18.151Z,14.32
2023-05-08T22:15:44.600Z,14.27
2023-05-08T22:18:10.906Z,14.16
2023-05-08T22:20:37.325Z,14.12
2023-05-08T22:23:03.654Z,13.98
2023-05-08T22:25:29.966Z,14.03
2023-05-08T22:27:56.265Z,13.89
2023-05-08T22:30:22.670Z,13.97
2023-05-08T22:32:54.843Z,13.92
2023-05-08T22:35:22.993Z,13.92
2023-05-08T22:37:49.400Z,13.91
2023-05-08T22:40:15.877Z,13.91
2023-05-08T22:42:42.900Z,13.88
2023-05-08T22:45:10.175Z,13.90
2023-05-08T22:47:36.719Z,13.89
2023-05-08T22:50:03.282Z,13.83
2023-05-08T22:52:29.644Z,13.83
2023-05-08T22:54:55.962Z,13.76
2023-05-08T22:57:22.279Z,13.81
2023-05-08T22:59:48.582Z,13.82
2023-05-08T23:02:14.898Z,13.81
2023-05-08T23:04:41.222Z,13.70
2023-05-08T23:07:07.547Z,13.70
2023-05-08T23:09:33.868Z,13.76
2023-05-08T23:12:00.164Z,13.63
2023-05-08T23:14:26.523Z,13.60
2023-05-08T23:16:52.908Z,13.57
2023-05-08T23:19:19.257Z,13.60
2023-05-08T23:21:45.556Z,13.51
2023-05-08T23:24:11.993Z,13.46
2023-05-08T23:26:39.522Z,13.47
2023-05-08T23:29:07.048Z,13.48
2023-05-08T23:31:33.411Z,13.43
2023-05-08T23:33:59.737Z,13.46
2023-05-08T23:36:26.054Z,13.44
2023-05-08T23:38:52.377Z,13.42
2023-05-08T23:41:18.752Z,13.44
2023-05-08T23:43:45.078Z,13.37
2023-05-08T23:46:11.448Z,13.38
2023-05-08T23:48:37.793Z,13.31
2023-05-08T23:51:04.399Z,13.45
2023-05-08T23:53:30.709Z,13.45
2023-05-08T23:55:56.993Z,13.45
2023-05-08T23:58:23.394Z,13.43
